sensor_id;sensor_type;location;lat;lon;timestamp;temperature;humidity
38183;DHT22;23991;52.430;10.586;2022-09-14T00:01:36;15.60;74.60
38183;DHT22;23991;52.430;10.586;2022-09-14T00:04:07;15.60;74.90
38183;DHT22;23991;52.430;10.586;2022-09-14T00:06:35;15.50;75.10
38183;DHT22;23991;52.430;10.586;2022-09-14T00:09:02;15.50;75.00
38183;DHT22;23991;52.430;10.586;2022-09-14T00:11:32;15.50;74.80
38183;DHT22;23991;52.430;10.586;2022-09-14T00:13:59;15.50;74.60
38183;DHT22;23991;52.430;10.586;2022-09-14T00:16:29;15.40;74.60
38183;DHT22;23991;52.430;10.586;2022-09-14T00:19:03;15.50;74.80
38183;DHT22;23991;52.430;10.586;2022-09-14T00:21:32;15.40;74.70
38183;DHT22;23991;52.430;10.586;2022-09-14T00:23:58;15.40;74.60
38183;DHT22;23991;52.430;10.586;2022-09-14T00:26:23;15.30;74.50
38183;DHT22;23991;52.430;10.586;2022-09-14T00:28:53;15.30;74.40
38183;DHT22;23991;52.430;10.586;2022-09-14T00:31:20;15.30;74.40
38183;DHT22;23991;52.430;10.586;2022-09-14T00:33:47;15.20;74.70
38183;DHT22;23991;52.430;10.586;2022-09-14T00:36:17;15.20;74.90
38183;DHT22;23991;52.430;10.586;2022-09-14T00:38:44;15.20;74.90
38183;DHT22;23991;52.430;10.586;2022-09-14T00:41:13;15.20;74.90
38183;DHT22;23991;52.430;10.586;2022-09-14T00:44:02;15.10;74.90
38183;DHT22;23991;52.430;10.586;2022-09-14T00:46:30;15.10;75.10
38183;DHT22;23991;52.430;10.586;2022-09-14T00:48:58;15.10;75.00
38183;DHT22;23991;52.430;10.586;2022-09-14T00:51:25;15.10;75.00
38183;DHT22;23991;52.430;10.586;2022-09-14T00:53:52;15.00;75.00
38183;DHT22;23991;52.430;10.586;2022-09-14T00:56:17;15.00;75.20
38183;DHT22;23991;52.430;10.586;2022-09-14T00:58:45;15.00;75.40
38183;DHT22;23991;52.430;10.586;2022-09-14T01:01:12;15.00;75.50
38183;DHT22;23991;52.430;10.586;2022-09-14T01:03:38;14.90;75.50
38183;DHT22;23991;52.430;10.586;2022-09-14T01:06:17;14.90;75.70
38183;DHT22;23991;52.430;10.586;2022-09-14T01:11:55;14.90;76.30
38183;DHT22;23991;52.430;10.586;2022-09-14T01:20:14;14.90;76.90
38183;DHT22;23991;52.430;10.586;2022-09-14T01:22:47;14.90;76.80
38183;DHT22;23991;52.430;10.586;2022-09-14T01:28:01;14.90;76.90
38183;DHT22;23991;52.430;10.586;2022-09-14T01:30:31;14.90;76.90
38183;DHT22;23991;52.430;10.586;2022-09-14T01:33:16;14.90;76.60
38183;DHT22;23991;52.430;10.586;2022-09-14T01:35:51;14.90;76.40
38183;DHT22;23991;52.430;10.586;2022-09-14T01:38:23;14.80;76.30
38183;DHT22;23991;52.430;10.586;2022-09-14T01:40:51;14.80;76.20
38183;DHT22;23991;52.430;10.586;2022-09-14T01:43:27;14.80;76.30
38183;DHT22;23991;52.430;10.586;2022-09-14T01:45:59;14.80;76.60
38183;DHT22;23991;52.430;10.586;2022-09-14T01:48:36;14.80;76.70
38183;DHT22;23991;52.430;10.586;2022-09-14T01:51:07;14.80;76.90
38183;DHT22;23991;52.430;10.586;2022-09-14T01:53:40;14.80;77.00
38183;DHT22;23991;52.430;10.586;2022-09-14T01:56:17;14.80;77.00
38183;DHT22;23991;52.430;10.586;2022-09-14T01:58:59;14.80;76.80
38183;DHT22;23991;52.430;10.586;2022-09-14T02:01:34;14.80;76.70
38183;DHT22;23991;52.430;10.586;2022-09-14T02:04:03;14.80;76.70
38183;DHT22;23991;52.430;10.586;2022-09-14T02:06:42;14.70;76.70
38183;DHT22;23991;52.430;10.586;2022-09-14T02:09:11;14.70;76.70
38183;DHT22;23991;52.430;10.586;2022-09-14T02:11:38;14.60;76.90
38183;DHT22;23991;52.430;10.586;2022-09-14T02:14:05;14.60;76.90
38183;DHT22;23991;52.430;10.586;2022-09-14T02:16:30;14.70;77.00
38183;DHT22;23991;52.430;10.586;2022-09-14T02:18:56;14.60;77.20
38183;DHT22;23991;52.430;10.586;2022-09-14T02:21:29;14.60;77.40
38183;DHT22;23991;52.430;10.586;2022-09-14T02:23:55;14.60;77.40
38183;DHT22;23991;52.430;10.586;2022-09-14T02:26:23;14.60;77.70
38183;DHT22;23991;52.430;10.586;2022-09-14T02:28:49;14.60;77.80
38183;DHT22;23991;52.430;10.586;2022-09-14T02:31:45;14.60;77.90
38183;DHT22;23991;52.430;10.586;2022-09-14T02:34:40;14.70;77.90
38183;DHT22;23991;52.430;10.586;2022-09-14T02:37:17;14.60;77.70
38183;DHT22;23991;52.430;10.586;2022-09-14T02:42:49;14.60;77.80
38183;DHT22;23991;52.430;10.586;2022-09-14T02:48:12;14.50;77.60
38183;DHT22;23991;52.430;10.586;2022-09-14T02:50:58;14.50;77.80
38183;DHT22;23991;52.430;10.586;2022-09-14T02:56:01;14.40;78.20
38183;DHT22;23991;52.430;10.586;2022-09-14T02:58:43;14.40;78.30
38183;DHT22;23991;52.430;10.586;2022-09-14T03:01:18;14.40;78.30
38183;DHT22;23991;52.430;10.586;2022-09-14T03:03:43;14.40;78.20
38183;DHT22;23991;52.430;10.586;2022-09-14T03:06:09;14.40;78.40
38183;DHT22;23991;52.430;10.586;2022-09-14T03:08:35;14.40;78.50
38183;DHT22;23991;52.430;10.586;2022-09-14T03:11:01;14.40;78.20
38183;DHT22;23991;52.430;10.586;2022-09-14T03:13:27;14.40;78.20
38183;DHT22;23991;52.430;10.586;2022-09-14T03:15:53;14.40;78.30
38183;DHT22;23991;52.430;10.586;2022-09-14T03:18:19;14.40;78.30
38183;DHT22;23991;52.430;10.586;2022-09-14T03:20:44;14.40;78.20
38183;DHT22;23991;52.430;10.586;2022-09-14T03:23:11;14.30;78.00
38183;DHT22;23991;52.430;10.586;2022-09-14T03:25:39;14.30;77.80
38183;DHT22;23991;52.430;10.586;2022-09-14T03:28:04;14.30;77.70
38183;DHT22;23991;52.430;10.586;2022-09-14T03:30:31;14.30;77.70
38183;DHT22;23991;52.430;10.586;2022-09-14T03:32:57;14.30;77.60
38183;DHT22;23991;52.430;10.586;2022-09-14T03:35:23;14.30;77.50
38183;DHT22;23991;52.430;10.586;2022-09-14T03:37:49;14.30;77.40
38183;DHT22;23991;52.430;10.586;2022-09-14T03:40:15;14.30;77.50
38183;DHT22;23991;52.430;10.586;2022-09-14T03:42:43;14.20;77.40
38183;DHT22;23991;52.430;10.586;2022-09-14T03:45:10;14.20;78.00
38183;DHT22;23991;52.430;10.586;2022-09-14T03:47:36;14.20;78.30
38183;DHT22;23991;52.430;10.586;2022-09-14T03:50:02;14.20;78.40
38183;DHT22;23991;52.430;10.586;2022-09-14T03:52:28;14.20;78.20
38183;DHT22;23991;52.430;10.586;2022-09-14T03:54:53;14.20;78.00
38183;DHT22;23991;52.430;10.586;2022-09-14T03:57:19;14.20;77.90
38183;DHT22;23991;52.430;10.586;2022-09-14T03:59:45;14.10;77.80
38183;DHT22;23991;52.430;10.586;2022-09-14T04:02:10;14.10;77.60
38183;DHT22;23991;52.430;10.586;2022-09-14T04:04:36;14.10;77.60
38183;DHT22;23991;52.430;10.586;2022-09-14T04:07:01;14.10;77.90
38183;DHT22;23991;52.430;10.586;2022-09-14T04:09:27;14.10;77.90
38183;DHT22;23991;52.430;10.586;2022-09-14T04:11:53;14.00;77.90
38183;DHT22;23991;52.430;10.586;2022-09-14T04:14:18;14.00;77.80
38183;DHT22;23991;52.430;10.586;2022-09-14T04:16:44;14.00;77.80
38183;DHT22;23991;52.430;10.586;2022-09-14T04:19:11;13.90;77.80
38183;DHT22;23991;52.430;10.586;2022-09-14T04:21:37;13.90;77.60
38183;DHT22;23991;52.430;10.586;2022-09-14T04:24:02;13.90;77.40
38183;DHT22;23991;52.430;10.586;2022-09-14T04:26:29;13.90;77.40
38183;DHT22;23991;52.430;10.586;2022-09-14T04:28:56;13.90;77.70
38183;DHT22;23991;52.430;10.586;2022-09-14T04:31:23;13.80;77.70
38183;DHT22;23991;52.430;10.586;2022-09-14T04:33:49;13.80;77.70
38183;DHT22;23991;52.430;10.586;2022-09-14T04:36:20;13.80;77.50
38183;DHT22;23991;52.430;10.586;2022-09-14T04:38:47;13.80;77.40
38183;DHT22;23991;52.430;10.586;2022-09-14T04:41:17;13.80;77.40
38183;DHT22;23991;52.430;10.586;2022-09-14T04:43:45;13.70;77.20
38183;DHT22;23991;52.430;10.586;2022-09-14T04:46:18;13.70;77.10
38183;DHT22;23991;52.430;10.586;2022-09-14T04:48:44;13.60;76.90
38183;DHT22;23991;52.430;10.586;2022-09-14T04:51:21;13.60;76.90
38183;DHT22;23991;52.430;10.586;2022-09-14T04:53:50;13.60;77.10
38183;DHT22;23991;52.430;10.586;2022-09-14T04:56:17;13.60;77.30
38183;DHT22;23991;52.430;10.586;2022-09-14T04:58:46;13.50;77.20
38183;DHT22;23991;52.430;10.586;2022-09-14T05:01:14;13.60;77.20
38183;DHT22;23991;52.430;10.586;2022-09-14T05:03:40;13.50;77.20
38183;DHT22;23991;52.430;10.586;2022-09-14T05:06:12;13.50;77.50
38183;DHT22;23991;52.430;10.586;2022-09-14T05:08:38;13.50;77.50
38183;DHT22;23991;52.430;10.586;2022-09-14T05:11:05;13.60;77.70
38183;DHT22;23991;52.430;10.586;2022-09-14T05:13:32;13.50;77.50
38183;DHT22;23991;52.430;10.586;2022-09-14T05:16:10;13.60;77.40
38183;DHT22;23991;52.430;10.586;2022-09-14T05:18:36;13.60;77.40
38183;DHT22;23991;52.430;10.586;2022-09-14T05:21:06;13.70;77.40
38183;DHT22;23991;52.430;10.586;2022-09-14T05:23:32;13.80;77.70
38183;DHT22;23991;52.430;10.586;2022-09-14T05:25:59;13.80;77.70
38183;DHT22;23991;52.430;10.586;2022-09-14T05:28:25;13.90;77.10
38183;DHT22;23991;52.430;10.586;2022-09-14T05:30:51;13.90;76.90
38183;DHT22;23991;52.430;10.586;2022-09-14T05:33:17;14.00;76.70
38183;DHT22;23991;52.430;10.586;2022-09-14T05:35:43;14.10;76.60
38183;DHT22;23991;52.430;10.586;2022-09-14T05:38:09;14.20;76.50
38183;DHT22;23991;52.430;10.586;2022-09-14T05:40:34;14.30;76.40
38183;DHT22;23991;52.430;10.586;2022-09-14T05:43:00;14.30;76.00
38183;DHT22;23991;52.430;10.586;2022-09-14T05:45:26;14.40;75.70
38183;DHT22;23991;52.430;10.586;2022-09-14T05:47:51;14.40;75.60
38183;DHT22;23991;52.430;10.586;2022-09-14T05:50:17;14.50;75.60
38183;DHT22;23991;52.430;10.586;2022-09-14T05:52:42;14.60;75.60
38183;DHT22;23991;52.430;10.586;2022-09-14T05:55:08;14.70;75.20
38183;DHT22;23991;52.430;10.586;2022-09-14T05:57:34;14.70;74.90
38183;DHT22;23991;52.430;10.586;2022-09-14T05:59:59;14.80;74.50
38183;DHT22;23991;52.430;10.586;2022-09-14T06:02:25;14.90;74.70
38183;DHT22;23991;52.430;10.586;2022-09-14T06:04:51;15.00;74.60
38183;DHT22;23991;52.430;10.586;2022-09-14T06:07:16;15.10;74.60
38183;DHT22;23991;52.430;10.586;2022-09-14T06:09:42;15.10;74.30
38183;DHT22;23991;52.430;10.586;2022-09-14T06:12:08;15.20;74.20
38183;DHT22;23991;52.430;10.586;2022-09-14T06:14:34;15.30;74.20
38183;DHT22;23991;52.430;10.586;2022-09-14T06:17:00;15.40;74.30
38183;DHT22;23991;52.430;10.586;2022-09-14T06:19:25;15.40;74.00
38183;DHT22;23991;52.430;10.586;2022-09-14T06:21:51;15.60;73.80
38183;DHT22;23991;52.430;10.586;2022-09-14T06:24:17;15.70;73.80
38183;DHT22;23991;52.430;10.586;2022-09-14T06:26:43;15.60;73.90
38183;DHT22;23991;52.430;10.586;2022-09-14T06:29:08;15.80;73.60
38183;DHT22;23991;52.430;10.586;2022-09-14T06:31:34;16.00;73.50
38183;DHT22;23991;52.430;10.586;2022-09-14T06:34:00;16.10;73.30
38183;DHT22;23991;52.430;10.586;2022-09-14T06:36:27;16.20;73.10
38183;DHT22;23991;52.430;10.586;2022-09-14T06:38:54;16.40;72.70
38183;DHT22;23991;52.430;10.586;2022-09-14T06:41:22;16.50;72.40
38183;DHT22;23991;52.430;10.586;2022-09-14T06:43:50;16.70;72.00
38183;DHT22;23991;52.430;10.586;2022-09-14T06:46:17;16.80;71.20
38183;DHT22;23991;52.430;10.586;2022-09-14T06:48:47;16.80;71.30
38183;DHT22;23991;52.430;10.586;2022-09-14T06:51:17;16.80;70.90
38183;DHT22;23991;52.430;10.586;2022-09-14T06:53:44;16.80;70.80
38183;DHT22;23991;52.430;10.586;2022-09-14T06:56:10;16.80;70.80
38183;DHT22;23991;52.430;10.586;2022-09-14T06:58:36;17.10;70.60
38183;DHT22;23991;52.430;10.586;2022-09-14T07:01:07;17.10;70.20
38183;DHT22;23991;52.430;10.586;2022-09-14T07:03:36;17.30;69.40
38183;DHT22;23991;52.430;10.586;2022-09-14T07:06:04;17.60;68.70
38183;DHT22;23991;52.430;10.586;2022-09-14T07:08:34;17.60;68.80
38183;DHT22;23991;52.430;10.586;2022-09-14T07:11:00;17.60;68.90
38183;DHT22;23991;52.430;10.586;2022-09-14T07:13:28;17.60;68.90
38183;DHT22;23991;52.430;10.586;2022-09-14T07:15:54;17.60;68.70
38183;DHT22;23991;52.430;10.586;2022-09-14T07:18:20;17.80;68.10
38183;DHT22;23991;52.430;10.586;2022-09-14T07:20:47;17.80;67.90
38183;DHT22;23991;52.430;10.586;2022-09-14T07:23:13;17.80;67.80
38183;DHT22;23991;52.430;10.586;2022-09-14T07:25:38;17.90;68.20
38183;DHT22;23991;52.430;10.586;2022-09-14T07:28:05;18.00;67.20
38183;DHT22;23991;52.430;10.586;2022-09-14T07:30:34;18.20;66.90
38183;DHT22;23991;52.430;10.586;2022-09-14T07:32:59;18.30;66.60
38183;DHT22;23991;52.430;10.586;2022-09-14T07:35:25;18.40;66.40
38183;DHT22;23991;52.430;10.586;2022-09-14T07:37:51;18.50;66.60
38183;DHT22;23991;52.430;10.586;2022-09-14T07:40:16;18.70;65.80
38183;DHT22;23991;52.430;10.586;2022-09-14T07:42:42;18.90;64.30
38183;DHT22;23991;52.430;10.586;2022-09-14T07:45:08;19.20;63.90
38183;DHT22;23991;52.430;10.586;2022-09-14T07:47:33;19.60;62.80
38183;DHT22;23991;52.430;10.586;2022-09-14T07:49:59;20.00;60.80
38183;DHT22;23991;52.430;10.586;2022-09-14T07:52:24;19.90;61.00
38183;DHT22;23991;52.430;10.586;2022-09-14T07:54:50;19.80;60.70
38183;DHT22;23991;52.430;10.586;2022-09-14T07:57:16;19.80;61.40
38183;DHT22;23991;52.430;10.586;2022-09-14T07:59:42;19.80;61.60
38183;DHT22;23991;52.430;10.586;2022-09-14T08:02:09;20.00;61.10
38183;DHT22;23991;52.430;10.586;2022-09-14T08:04:36;20.20;60.80
38183;DHT22;23991;52.430;10.586;2022-09-14T08:07:04;20.30;60.30
38183;DHT22;23991;52.430;10.586;2022-09-14T08:09:30;20.40;60.10
38183;DHT22;23991;52.430;10.586;2022-09-14T08:11:55;20.50;60.30
38183;DHT22;23991;52.430;10.586;2022-09-14T08:14:21;20.80;59.50
38183;DHT22;23991;52.430;10.586;2022-09-14T08:16:47;20.90;58.50
38183;DHT22;23991;52.430;10.586;2022-09-14T08:19:15;21.00;58.50
38183;DHT22;23991;52.430;10.586;2022-09-14T08:21:42;21.20;58.00
38183;DHT22;23991;52.430;10.586;2022-09-14T08:24:10;21.10;57.40
38183;DHT22;23991;52.430;10.586;2022-09-14T08:26:36;21.10;58.20
38183;DHT22;23991;52.430;10.586;2022-09-14T08:29:02;21.40;57.40
38183;DHT22;23991;52.430;10.586;2022-09-14T08:31:29;21.50;57.70
38183;DHT22;23991;52.430;10.586;2022-09-14T08:34:00;22.00;56.00
38183;DHT22;23991;52.430;10.586;2022-09-14T08:36:32;22.30;55.10
38183;DHT22;23991;52.430;10.586;2022-09-14T08:38:58;22.70;55.50
38183;DHT22;23991;52.430;10.586;2022-09-14T08:41:37;23.20;52.80
38183;DHT22;23991;52.430;10.586;2022-09-14T08:46:53;23.80;51.20
38183;DHT22;23991;52.430;10.586;2022-09-14T08:51:49;24.50;50.70
38183;DHT22;23991;52.430;10.586;2022-09-14T08:54:15;25.20;47.80
38183;DHT22;23991;52.430;10.586;2022-09-14T08:56:44;25.30;47.40
38183;DHT22;23991;52.430;10.586;2022-09-14T08:59:21;25.80;47.90
38183;DHT22;23991;52.430;10.586;2022-09-14T09:10:19;25.90;46.80
38183;DHT22;23991;52.430;10.586;2022-09-14T09:12:49;26.00;46.70
38183;DHT22;23991;52.430;10.586;2022-09-14T09:15:33;26.30;46.30
38183;DHT22;23991;52.430;10.586;2022-09-14T09:20:56;26.50;45.60
38183;DHT22;23991;52.430;10.586;2022-09-14T09:23:25;26.60;45.20
38183;DHT22;23991;52.430;10.586;2022-09-14T09:28:17;26.50;44.40
38183;DHT22;23991;52.430;10.586;2022-09-14T09:30:44;26.20;44.30
38183;DHT22;23991;52.430;10.586;2022-09-14T09:33:20;26.30;44.80
38183;DHT22;23991;52.430;10.586;2022-09-14T09:35:47;26.10;45.10
38183;DHT22;23991;52.430;10.586;2022-09-14T09:38:19;26.30;45.00
38183;DHT22;23991;52.430;10.586;2022-09-14T09:40:56;26.10;45.10
38183;DHT22;23991;52.430;10.586;2022-09-14T09:43:23;26.10;45.30
38183;DHT22;23991;52.430;10.586;2022-09-14T09:45:53;26.20;45.10
38183;DHT22;23991;52.430;10.586;2022-09-14T09:48:23;25.90;46.00
38183;DHT22;23991;52.430;10.586;2022-09-14T09:51:00;26.30;43.90
38183;DHT22;23991;52.430;10.586;2022-09-14T09:53:26;26.50;42.90
38183;DHT22;23991;52.430;10.586;2022-09-14T09:55:52;26.70;42.80
38183;DHT22;23991;52.430;10.586;2022-09-14T09:58:36;26.70;42.80
38183;DHT22;23991;52.430;10.586;2022-09-14T10:01:06;26.30;43.80
38183;DHT22;23991;52.430;10.586;2022-09-14T10:03:37;26.30;43.50
38183;DHT22;23991;52.430;10.586;2022-09-14T10:06:06;26.20;44.00
38183;DHT22;23991;52.430;10.586;2022-09-14T10:08:39;26.20;44.20
38183;DHT22;23991;52.430;10.586;2022-09-14T10:11:05;26.00;43.50
38183;DHT22;23991;52.430;10.586;2022-09-14T10:13:36;25.70;43.80
38183;DHT22;23991;52.430;10.586;2022-09-14T10:18:31;25.70;43.30
38183;DHT22;23991;52.430;10.586;2022-09-14T10:23:27;25.70;43.60
38183;DHT22;23991;52.430;10.586;2022-09-14T10:28:44;26.20;42.60
38183;DHT22;23991;52.430;10.586;2022-09-14T10:33:45;26.20;42.70
38183;DHT22;23991;52.430;10.586;2022-09-14T10:36:40;26.40;42.40
38183;DHT22;23991;52.430;10.586;2022-09-14T10:39:19;26.90;41.40
38183;DHT22;23991;52.430;10.586;2022-09-14T10:41:48;27.00;40.90
38183;DHT22;23991;52.430;10.586;2022-09-14T10:44:33;26.90;41.30
38183;DHT22;23991;52.430;10.586;2022-09-14T10:55:40;26.80;40.30
38183;DHT22;23991;52.430;10.586;2022-09-14T11:06:32;26.90;38.60
38183;DHT22;23991;52.430;10.586;2022-09-14T11:12:17;26.50;40.30
38183;DHT22;23991;52.430;10.586;2022-09-14T11:21:21;26.70;39.90
38183;DHT22;23991;52.430;10.586;2022-09-14T11:24:11;26.70;40.30
38183;DHT22;23991;52.430;10.586;2022-09-14T11:26:46;26.70;40.50
38183;DHT22;23991;52.430;10.586;2022-09-14T11:29:25;26.50;41.00
38183;DHT22;23991;52.430;10.586;2022-09-14T11:35:17;25.90;42.10
38183;DHT22;23991;52.430;10.586;2022-09-14T11:38:05;26.00;41.40
38183;DHT22;23991;52.430;10.586;2022-09-14T11:40:36;26.50;40.70
38183;DHT22;23991;52.430;10.586;2022-09-14T11:43:46;26.50;41.20
38183;DHT22;23991;52.430;10.586;2022-09-14T11:46:37;26.70;41.80
38183;DHT22;23991;52.430;10.586;2022-09-14T11:49:21;27.00;40.00
38183;DHT22;23991;52.430;10.586;2022-09-14T11:52:32;27.20;38.90
38183;DHT22;23991;52.430;10.586;2022-09-14T11:54:41;27.30;37.90
38183;DHT22;23991;52.430;10.586;2022-09-14T11:57:11;27.40;37.40
38183;DHT22;23991;52.430;10.586;2022-09-14T12:12:53;27.10;39.20
38183;DHT22;23991;52.430;10.586;2022-09-14T12:18:14;26.80;39.20
38183;DHT22;23991;52.430;10.586;2022-09-14T12:20:39;26.70;39.70
38183;DHT22;23991;52.430;10.586;2022-09-14T12:25:56;26.40;40.30
38183;DHT22;23991;52.430;10.586;2022-09-14T12:36:01;25.90;40.90
38183;DHT22;23991;52.430;10.586;2022-09-14T12:40:56;25.70;41.00
38183;DHT22;23991;52.430;10.586;2022-09-14T12:46:10;25.60;41.50
38183;DHT22;23991;52.430;10.586;2022-09-14T12:48:56;25.70;41.90
38183;DHT22;23991;52.430;10.586;2022-09-14T12:51:29;25.70;41.70
38183;DHT22;23991;52.430;10.586;2022-09-14T12:54:14;25.80;41.60
38183;DHT22;23991;52.430;10.586;2022-09-14T13:05:25;25.50;42.10
38183;DHT22;23991;52.430;10.586;2022-09-14T13:07:53;25.20;43.10
38183;DHT22;23991;52.430;10.586;2022-09-14T13:10:32;25.20;42.90
38183;DHT22;23991;52.430;10.586;2022-09-14T13:13:01;25.00;43.80
38183;DHT22;23991;52.430;10.586;2022-09-14T13:15:33;25.10;43.40
38183;DHT22;23991;52.430;10.586;2022-09-14T13:20:49;25.10;43.50
38183;DHT22;23991;52.430;10.586;2022-09-14T13:23:19;25.00;42.80
38183;DHT22;23991;52.430;10.586;2022-09-14T13:25:45;25.00;43.00
38183;DHT22;23991;52.430;10.586;2022-09-14T13:28:16;24.90;43.10
38183;DHT22;23991;52.430;10.586;2022-09-14T13:30:56;24.80;43.60
38183;DHT22;23991;52.430;10.586;2022-09-14T13:33:22;24.90;43.80
38183;DHT22;23991;52.430;10.586;2022-09-14T13:35:50;24.70;44.10
38183;DHT22;23991;52.430;10.586;2022-09-14T13:38:32;24.70;44.10
38183;DHT22;23991;52.430;10.586;2022-09-14T13:41:10;24.70;43.40
38183;DHT22;23991;52.430;10.586;2022-09-14T13:43:36;24.70;44.10
38183;DHT22;23991;52.430;10.586;2022-09-14T13:46:04;24.60;44.40
38183;DHT22;23991;52.430;10.586;2022-09-14T13:48:32;24.60;44.30
38183;DHT22;23991;52.430;10.586;2022-09-14T13:50:58;24.40;44.40
38183;DHT22;23991;52.430;10.586;2022-09-14T13:56:28;24.50;44.20
38183;DHT22;23991;52.430;10.586;2022-09-14T14:07:12;24.50;44.70
38183;DHT22;23991;52.430;10.586;2022-09-14T14:09:49;24.50;45.20
38183;DHT22;23991;52.430;10.586;2022-09-14T14:12:30;24.50;45.10
38183;DHT22;23991;52.430;10.586;2022-09-14T14:15:05;24.50;45.20
38183;DHT22;23991;52.430;10.586;2022-09-14T14:17:38;24.50;45.70
38183;DHT22;23991;52.430;10.586;2022-09-14T14:25:35;24.30;45.30
38183;DHT22;23991;52.430;10.586;2022-09-14T14:28:04;24.30;45.40
38183;DHT22;23991;52.430;10.586;2022-09-14T14:30:35;24.20;45.40
38183;DHT22;23991;52.430;10.586;2022-09-14T14:33:01;24.10;45.70
38183;DHT22;23991;52.430;10.586;2022-09-14T14:35:29;24.00;46.00
38183;DHT22;23991;52.430;10.586;2022-09-14T14:37:55;23.80;46.60
38183;DHT22;23991;52.430;10.586;2022-09-14T14:40:22;24.10;46.90
38183;DHT22;23991;52.430;10.586;2022-09-14T14:42:48;24.10;46.40
38183;DHT22;23991;52.430;10.586;2022-09-14T14:45:17;24.00;46.90
38183;DHT22;23991;52.430;10.586;2022-09-14T14:47:45;23.80;46.70
38183;DHT22;23991;52.430;10.586;2022-09-14T14:50:16;24.00;46.60
38183;DHT22;23991;52.430;10.586;2022-09-14T14:52:42;24.10;46.40
38183;DHT22;23991;52.430;10.586;2022-09-14T14:55:08;24.00;47.30
38183;DHT22;23991;52.430;10.586;2022-09-14T14:57:34;23.80;46.80
38183;DHT22;23991;52.430;10.586;2022-09-14T15:00:03;23.90;45.90
38183;DHT22;23991;52.430;10.586;2022-09-14T15:02:29;23.90;46.60
38183;DHT22;23991;52.430;10.586;2022-09-14T15:04:54;23.90;46.70
38183;DHT22;23991;52.430;10.586;2022-09-14T15:07:20;24.00;46.80
38183;DHT22;23991;52.430;10.586;2022-09-14T15:09:45;23.80;46.90
38183;DHT22;23991;52.430;10.586;2022-09-14T15:12:11;23.70;47.40
38183;DHT22;23991;52.430;10.586;2022-09-14T15:14:37;23.80;47.30
38183;DHT22;23991;52.430;10.586;2022-09-14T15:17:02;23.70;47.70
38183;DHT22;23991;52.430;10.586;2022-09-14T15:19:28;23.60;47.70
38183;DHT22;23991;52.430;10.586;2022-09-14T15:21:54;23.70;47.60
38183;DHT22;23991;52.430;10.586;2022-09-14T15:24:20;23.50;48.10
38183;DHT22;23991;52.430;10.586;2022-09-14T15:26:45;23.60;47.90
38183;DHT22;23991;52.430;10.586;2022-09-14T15:29:11;23.60;47.90
38183;DHT22;23991;52.430;10.586;2022-09-14T15:31:42;23.40;48.40
38183;DHT22;23991;52.430;10.586;2022-09-14T15:34:08;23.40;48.70
38183;DHT22;23991;52.430;10.586;2022-09-14T15:36:49;23.50;48.60
38183;DHT22;23991;52.430;10.586;2022-09-14T15:39:20;23.60;48.70
38183;DHT22;23991;52.430;10.586;2022-09-14T15:41:46;23.50;49.30
38183;DHT22;23991;52.430;10.586;2022-09-14T15:44:12;23.40;49.30
38183;DHT22;23991;52.430;10.586;2022-09-14T15:46:38;23.30;49.40
38183;DHT22;23991;52.430;10.586;2022-09-14T15:49:07;23.00;49.50
38183;DHT22;23991;52.430;10.586;2022-09-14T15:51:33;23.20;49.90
38183;DHT22;23991;52.430;10.586;2022-09-14T15:54:00;23.10;50.30
38183;DHT22;23991;52.430;10.586;2022-09-14T15:56:26;23.00;50.80
38183;DHT22;23991;52.430;10.586;2022-09-14T15:58:51;23.00;50.40
38183;DHT22;23991;52.430;10.586;2022-09-14T16:01:18;23.00;50.30
38183;DHT22;23991;52.430;10.586;2022-09-14T16:03:44;23.00;51.10
38183;DHT22;23991;52.430;10.586;2022-09-14T16:06:11;22.80;51.70
38183;DHT22;23991;52.430;10.586;2022-09-14T16:08:38;22.90;51.70
38183;DHT22;23991;52.430;10.586;2022-09-14T16:11:05;22.80;51.80
38183;DHT22;23991;52.430;10.586;2022-09-14T16:13:32;22.80;51.40
38183;DHT22;23991;52.430;10.586;2022-09-14T16:16:10;22.70;51.10
38183;DHT22;23991;52.430;10.586;2022-09-14T16:18:36;22.80;51.30
38183;DHT22;23991;52.430;10.586;2022-09-14T16:21:07;22.70;51.10
38183;DHT22;23991;52.430;10.586;2022-09-14T16:23:35;22.80;51.10
38183;DHT22;23991;52.430;10.586;2022-09-14T16:26:10;22.70;52.30
38183;DHT22;23991;52.430;10.586;2022-09-14T16:28:37;22.60;51.80
38183;DHT22;23991;52.430;10.586;2022-09-14T16:31:08;22.50;52.10
38183;DHT22;23991;52.430;10.586;2022-09-14T16:33:36;22.60;52.10
38183;DHT22;23991;52.430;10.586;2022-09-14T16:36:05;22.60;52.20
38183;DHT22;23991;52.430;10.586;2022-09-14T16:38:31;22.60;52.60
38183;DHT22;23991;52.430;10.586;2022-09-14T16:40:58;22.50;52.80
38183;DHT22;23991;52.430;10.586;2022-09-14T16:43:24;22.60;52.70
38183;DHT22;23991;52.430;10.586;2022-09-14T16:46:19;22.60;53.70
38183;DHT22;23991;52.430;10.586;2022-09-14T16:48:46;22.60;53.70
38183;DHT22;23991;52.430;10.586;2022-09-14T16:51:15;22.40;53.80
38183;DHT22;23991;52.430;10.586;2022-09-14T16:53:42;22.50;54.00
38183;DHT22;23991;52.430;10.586;2022-09-14T16:56:16;22.40;54.70
38183;DHT22;23991;52.430;10.586;2022-09-14T16:58:42;22.40;54.40
38183;DHT22;23991;52.430;10.586;2022-09-14T17:01:19;22.30;55.20
38183;DHT22;23991;52.430;10.586;2022-09-14T17:03:47;22.30;55.00
38183;DHT22;23991;52.430;10.586;2022-09-14T17:06:19;22.30;55.00
38183;DHT22;23991;52.430;10.586;2022-09-14T17:08:46;22.20;55.10
38183;DHT22;23991;52.430;10.586;2022-09-14T17:11:13;22.00;55.60
38183;DHT22;23991;52.430;10.586;2022-09-14T17:13:39;22.00;56.20
38183;DHT22;23991;52.430;10.586;2022-09-14T17:16:08;21.90;56.60
38183;DHT22;23991;52.430;10.586;2022-09-14T17:18:37;21.80;56.90
38183;DHT22;23991;52.430;10.586;2022-09-14T17:21:05;21.80;57.00
38183;DHT22;23991;52.430;10.586;2022-09-14T17:23:32;21.70;57.20
38183;DHT22;23991;52.430;10.586;2022-09-14T17:25:58;21.70;57.20
38183;DHT22;23991;52.430;10.586;2022-09-14T17:28:26;21.50;57.40
38183;DHT22;23991;52.430;10.586;2022-09-14T17:30:55;21.70;57.40
38183;DHT22;23991;52.430;10.586;2022-09-14T17:33:20;21.70;57.70
38183;DHT22;23991;52.430;10.586;2022-09-14T17:35:48;21.50;58.20
38183;DHT22;23991;52.430;10.586;2022-09-14T17:38:15;21.40;58.10
38183;DHT22;23991;52.430;10.586;2022-09-14T17:40:42;21.50;58.30
38183;DHT22;23991;52.430;10.586;2022-09-14T17:43:07;21.40;58.30
38183;DHT22;23991;52.430;10.586;2022-09-14T17:45:33;21.30;59.00
38183;DHT22;23991;52.430;10.586;2022-09-14T17:47:59;21.30;58.70